createdAt,value
2019-04-06T00:01:42.352Z,6.72
2019-04-06T00:04:12.006Z,6.73
2019-04-06T00:06:41.630Z,6.58
2019-04-06T00:09:11.249Z,6.59
2019-04-06T00:11:40.903Z,6.57
2019-04-06T00:14:10.534Z,6.73
2019-04-06T00:16:40.259Z,6.59
2019-04-06T00:19:09.910Z,6.57
2019-04-06T00:21:39.604Z,6.56
2019-04-06T00:24:09.302Z,6.59
2019-04-06T00:26:38.936Z,6.68
2019-04-06T00:29:08.694Z,6.61
2019-04-06T00:31:42.843Z,6.41
2019-04-06T00:34:11.706Z,6.28
2019-04-06T00:36:41.329Z,6.38
2019-04-06T00:39:11.186Z,6.41
2019-04-06T00:41:40.850Z,6.48
2019-04-06T00:44:10.470Z,6.30
2019-04-06T00:46:40.160Z,6.09
2019-04-06T00:49:09.809Z,6.32
2019-04-06T00:51:39.444Z,6.33
2019-04-06T00:54:09.083Z,6.28
2019-04-06T00:56:38.701Z,6.34
2019-04-06T00:59:08.354Z,6.44
2019-04-06T01:01:37.980Z,6.28
2019-04-06T01:04:07.674Z,6.33
2019-04-06T01:06:37.337Z,6.46
2019-04-06T01:09:10.363Z,6.35
2019-04-06T01:11:40.050Z,6.49
2019-04-06T01:14:09.715Z,6.34
2019-04-06T01:16:39.338Z,6.25
2019-04-06T01:19:08.960Z,6.22
2019-04-06T01:21:38.679Z,6.25
2019-04-06T01:24:08.295Z,6.44
2019-04-06T01:26:38.008Z,6.35
2019-04-06T01:29:07.641Z,6.21
2019-04-06T01:31:37.334Z,6.07
2019-04-06T01:34:06.976Z,6.06
2019-04-06T01:36:36.623Z,6.02
2019-04-06T01:39:07.577Z,5.97
2019-04-06T01:41:37.220Z,5.90
2019-04-06T01:44:06.888Z,5.85
2019-04-06T01:46:36.566Z,5.75
2019-04-06T01:49:06.186Z,5.73
2019-04-06T01:51:35.802Z,5.84
2019-04-06T01:54:05.450Z,6.09
2019-04-06T01:56:35.084Z,6.00
2019-04-06T01:59:04.771Z,5.87
2019-04-06T02:01:36.059Z,5.78
2019-04-06T02:04:05.774Z,5.80
2019-04-06T02:06:35.404Z,5.75
2019-04-06T02:09:06.554Z,5.56
2019-04-06T02:11:36.175Z,5.59
2019-04-06T02:14:05.897Z,5.60
2019-04-06T02:16:35.519Z,5.43
2019-04-06T02:19:05.239Z,5.44
2019-04-06T02:21:34.857Z,5.61
2019-04-06T02:24:04.572Z,5.71
2019-04-06T02:26:34.189Z,5.62
2019-04-06T02:29:03.900Z,5.55
2019-04-06T02:31:36.172Z,5.70
2019-04-06T02:34:08.604Z,5.60
2019-04-06T02:36:52.215Z,5.41
2019-04-06T02:39:23.533Z,5.27
2019-04-06T02:41:57.446Z,5.23
2019-04-06T02:44:26.479Z,5.20
2019-04-06T02:46:56.156Z,5.23
2019-04-06T02:49:25.777Z,5.17
2019-04-06T02:51:55.414Z,5.05
2019-04-06T02:54:25.046Z,5.11
2019-04-06T02:56:54.689Z,5.04
2019-04-06T02:59:24.305Z,5.10
2019-04-06T03:01:54.022Z,4.97
2019-04-06T03:04:23.632Z,4.89
2019-04-06T03:06:53.442Z,4.83
2019-04-06T03:09:23.343Z,4.75
2019-04-06T03:11:53.038Z,4.60
2019-04-06T03:14:22.969Z,4.63
2019-04-06T03:16:52.820Z,4.69
2019-04-06T03:19:22.547Z,4.64
2019-04-06T03:21:52.171Z,4.56
2019-04-06T03:24:21.846Z,4.58
2019-04-06T03:27:01.066Z,4.61
2019-04-06T03:29:22.887Z,4.60
2019-04-06T03:31:52.643Z,4.53
2019-04-06T03:34:22.898Z,4.40
2019-04-06T03:36:53.018Z,4.17
2019-04-06T03:39:22.672Z,4.31
2019-04-06T03:41:52.324Z,4.36
2019-04-06T03:44:21.945Z,4.20
2019-04-06T03:46:51.595Z,4.04
2019-04-06T03:49:21.220Z,4.12
2019-04-06T03:51:50.957Z,4.23
2019-04-06T03:54:20.755Z,4.38
2019-04-06T03:56:50.686Z,4.34
2019-04-06T03:59:20.491Z,4.33
2019-04-06T04:01:50.142Z,4.40
2019-04-06T04:04:19.762Z,4.53
2019-04-06T04:06:49.695Z,4.66
2019-04-06T04:09:19.312Z,4.60
2019-04-06T04:11:48.935Z,4.62
2019-04-06T04:14:20.222Z,4.65
2019-04-06T04:16:49.841Z,4.73
2019-04-06T04:19:19.493Z,4.65
2019-04-06T04:21:49.327Z,4.52
2019-04-06T04:24:19.040Z,4.44
2019-04-06T04:26:48.674Z,4.41
2019-04-06T04:29:18.303Z,4.29
2019-04-06T04:31:48.063Z,4.36
2019-04-06T04:34:17.755Z,4.26
2019-04-06T04:36:47.385Z,4.25
2019-04-06T04:39:16.997Z,4.14
2019-04-06T04:41:46.631Z,4.03
2019-04-06T04:44:16.246Z,3.98
2019-04-06T04:46:45.895Z,4.02
2019-04-06T04:49:15.514Z,4.02
2019-04-06T04:51:45.327Z,3.99
2019-04-06T04:54:14.964Z,3.89
2019-04-06T04:56:44.607Z,3.77
2019-04-06T04:59:14.228Z,3.94
2019-04-06T05:01:43.964Z,3.95
2019-04-06T05:04:13.567Z,3.96
2019-04-06T05:06:43.215Z,4.02
2019-04-06T05:09:12.840Z,4.11
2019-04-06T05:11:42.484Z,4.15
2019-04-06T05:14:58.717Z,4.28
2019-04-06T05:17:28.721Z,4.35
2019-04-06T05:19:58.582Z,4.20
2019-04-06T05:22:28.229Z,4.24
2019-04-06T05:24:57.854Z,4.35
2019-04-06T05:27:27.783Z,4.43
2019-04-06T05:29:57.563Z,4.43
2019-04-06T05:32:27.279Z,4.36
2019-04-06T05:34:58.092Z,4.39
2019-04-06T05:37:28.216Z,4.34
2019-04-06T05:39:57.870Z,4.45
2019-04-06T05:42:27.590Z,4.50
2019-04-06T05:44:57.263Z,4.56
2019-04-06T05:47:26.894Z,4.55
2019-04-06T05:49:56.544Z,4.59
2019-04-06T05:52:26.160Z,4.56
2019-04-06T05:54:55.809Z,4.54
2019-04-06T05:57:25.428Z,4.47
2019-04-06T05:59:55.078Z,4.57
2019-04-06T06:02:24.701Z,4.57
2019-04-06T06:04:54.361Z,4.54
2019-04-06T06:07:23.973Z,4.52
2019-04-06T06:09:53.590Z,4.54
2019-04-06T06:12:23.234Z,4.61
2019-04-06T06:14:52.863Z,4.62
2019-04-06T06:17:22.575Z,4.66
2019-04-06T06:19:52.192Z,4.61
2019-04-06T06:22:21.833Z,4.63
2019-04-06T06:24:51.459Z,4.64
2019-04-06T06:27:22.947Z,4.72
2019-04-06T06:29:52.460Z,4.90
2019-04-06T06:32:22.130Z,4.92
2019-04-06T06:34:51.892Z,4.98
2019-04-06T06:37:21.742Z,5.10
2019-04-06T06:39:51.445Z,5.12
2019-04-06T06:42:21.067Z,5.10
2019-04-06T06:44:50.739Z,5.11
2019-04-06T06:47:20.337Z,5.06
2019-04-06T06:49:50.099Z,5.12
2019-04-06T06:52:19.754Z,5.16
2019-04-06T06:54:49.486Z,5.23
2019-04-06T06:57:19.128Z,5.29
2019-04-06T06:59:48.892Z,5.27
2019-04-06T07:02:18.572Z,5.27
2019-04-06T07:04:48.202Z,5.32
2019-04-06T07:07:17.840Z,5.34
2019-04-06T07:09:47.465Z,5.39
2019-04-06T07:12:17.112Z,5.40
2019-04-06T07:14:46.806Z,5.45
2019-04-06T07:17:16.818Z,5.48
2019-04-06T07:19:46.520Z,5.48
2019-04-06T07:22:16.136Z,5.48
2019-04-06T07:24:45.985Z,5.55
2019-04-06T07:27:15.680Z,5.59
2019-04-06T07:29:45.526Z,5.64
2019-04-06T07:32:15.427Z,5.66
2019-04-06T07:34:45.076Z,5.72
2019-04-06T07:37:14.693Z,5.75
2019-04-06T07:39:44.694Z,5.81
2019-04-06T07:42:14.306Z,5.84
2019-04-06T07:44:43.931Z,5.89
2019-04-06T07:47:13.572Z,5.94
2019-04-06T07:49:43.191Z,6.02
2019-04-06T07:52:12.837Z,6.10
2019-04-06T07:54:42.545Z,6.22
2019-04-06T07:57:12.173Z,6.26
2019-04-06T07:59:41.798Z,6.31
2019-04-06T08:02:11.444Z,6.37
2019-04-06T08:04:41.120Z,6.44
2019-04-06T08:07:11.041Z,6.52
2019-04-06T08:09:40.861Z,6.56
2019-04-06T08:12:10.526Z,6.60
2019-04-06T08:14:40.388Z,6.60
2019-04-06T08:17:10.072Z,6.69
2019-04-06T08:19:39.712Z,6.75
2019-04-06T08:22:09.335Z,6.83
2019-04-06T08:24:39.165Z,6.90
2019-04-06T08:27:08.936Z,6.96
2019-04-06T08:29:38.601Z,7.08
2019-04-06T08:32:08.227Z,7.09
2019-04-06T08:34:38.099Z,7.11
2019-04-06T08:37:07.990Z,7.23
2019-04-06T08:39:37.738Z,7.22
2019-04-06T08:42:07.671Z,7.30
2019-04-06T08:44:37.394Z,7.43
2019-04-06T08:47:07.125Z,7.54
2019-04-06T08:49:36.764Z,7.66
2019-04-06T08:52:06.518Z,7.81
2019-04-06T08:54:36.148Z,8.01
2019-04-06T08:57:06.070Z,8.23
2019-04-06T08:59:35.815Z,8.43
2019-04-06T09:02:05.562Z,8.56
2019-04-06T09:04:35.335Z,8.71
2019-04-06T09:07:05.117Z,8.85
2019-04-06T09:09:34.741Z,8.96
2019-04-06T09:12:04.389Z,9.00
2019-04-06T09:14:34.010Z,9.04
2019-04-06T09:17:03.659Z,9.23
2019-04-06T09:19:33.279Z,9.30
2019-04-06T09:22:02.927Z,9.34
2019-04-06T09:24:32.636Z,9.43
2019-04-06T09:27:02.306Z,9.49
2019-04-06T09:29:31.933Z,9.66
2019-04-06T09:32:01.561Z,9.89
2019-04-06T09:34:31.361Z,10.11
2019-04-06T09:37:01.049Z,10.18
2019-04-06T09:39:30.775Z,10.37
2019-04-06T09:42:00.494Z,10.52
2019-04-06T09:44:37.952Z,10.71
2019-04-06T09:47:12.041Z,10.86
2019-04-06T09:49:46.211Z,10.91
2019-04-06T09:52:24.653Z,10.99
2019-04-06T09:55:12.467Z,11.02
2019-04-06T09:57:59.499Z,11.14
2019-04-06T10:00:31.021Z,11.05
2019-04-06T10:03:02.347Z,10.95
2019-04-06T10:05:31.748Z,11.01
2019-04-06T10:08:09.030Z,11.05
2019-04-06T10:10:48.919Z,11.12
2019-04-06T10:13:20.217Z,11.19
2019-04-06T10:16:07.912Z,11.25
2019-04-06T10:18:42.227Z,11.31
2019-04-06T10:21:24.422Z,11.39
2019-04-06T10:24:07.595Z,11.52
2019-04-06T10:26:52.197Z,11.79
2019-04-06T10:29:48.264Z,11.93
2019-04-06T10:32:15.136Z,11.95
2019-04-06T10:34:49.542Z,11.88
2019-04-06T10:37:23.473Z,11.86
2019-04-06T10:39:54.729Z,11.82
2019-04-06T10:42:31.726Z,11.92
2019-04-06T10:45:01.122Z,11.82
2019-04-06T10:47:41.501Z,11.83
2019-04-06T10:50:31.796Z,11.92
2019-04-06T10:53:03.175Z,11.91
2019-04-06T10:55:50.444Z,11.70
2019-04-06T10:58:22.840Z,11.92
2019-04-06T11:00:52.256Z,12.04
2019-04-06T11:03:29.722Z,11.76
2019-04-06T11:06:04.247Z,11.71
2019-04-06T11:08:40.637Z,11.88
2019-04-06T11:11:27.146Z,11.85
2019-04-06T11:14:14.833Z,11.92
2019-04-06T11:16:48.770Z,11.92
2019-04-06T11:19:22.581Z,12.09
2019-04-06T11:21:53.855Z,12.19
2019-04-06T11:24:41.197Z,12.18
2019-04-06T11:27:14.936Z,11.95
2019-04-06T11:29:47.369Z,11.95
2019-04-06T11:32:27.740Z,11.98
2019-04-06T11:35:11.247Z,11.99
2019-04-06T11:37:51.425Z,12.10
2019-04-06T11:40:37.787Z,12.12
2019-04-06T11:43:09.057Z,12.26
2019-04-06T11:45:51.957Z,12.43
2019-04-06T11:48:31.938Z,12.45
2019-04-06T11:51:04.493Z,12.57
2019-04-06T11:53:35.764Z,12.62
2019-04-06T11:56:07.211Z,12.70
2019-04-06T11:58:38.501Z,12.69
2019-04-06T12:01:10.904Z,12.69
2019-04-06T12:04:00.451Z,12.71
2019-04-06T12:06:31.748Z,12.69
2019-04-06T12:09:19.355Z,12.67
2019-04-06T12:11:50.810Z,12.75
2019-04-06T12:14:27.836Z,12.86
2019-04-06T12:16:59.960Z,12.90
2019-04-06T12:19:31.229Z,13.03
2019-04-06T12:22:08.728Z,13.06
2019-04-06T12:24:56.218Z,13.09
2019-04-06T12:27:27.547Z,13.15
2019-04-06T12:30:07.598Z,13.07
2019-04-06T12:32:54.207Z,13.22
2019-04-06T12:35:31.049Z,13.35
2019-04-06T12:38:18.380Z,13.40
2019-04-06T12:40:52.233Z,13.46
2019-04-06T12:43:27.847Z,13.47
2019-04-06T12:46:01.668Z,13.51
2019-04-06T12:48:32.974Z,13.69
2019-04-06T12:51:06.646Z,13.83
2019-04-06T12:53:38.841Z,14.15
2019-04-06T12:56:16.280Z,14.24
2019-04-06T12:58:59.696Z,14.41
2019-04-06T13:01:45.757Z,14.60
2019-04-06T13:04:32.946Z,14.88
2019-04-06T13:07:04.224Z,15.03
2019-04-06T13:09:44.616Z,15.23
2019-04-06T13:12:26.131Z,15.63
2019-04-06T13:14:57.511Z,16.00
2019-04-06T13:17:31.440Z,16.47
2019-04-06T13:20:02.759Z,16.71
2019-04-06T13:22:40.731Z,17.20
2019-04-06T13:25:12.353Z,17.16
2019-04-06T13:27:44.748Z,16.81
2019-04-06T13:30:31.554Z,16.67
2019-04-06T13:33:02.840Z,16.61
2019-04-06T13:35:50.193Z,16.78
2019-04-06T13:38:39.908Z,16.32
2019-04-06T13:41:20.479Z,15.99
2019-04-06T13:44:07.970Z,16.47
2019-04-06T13:46:39.945Z,16.56
2019-04-06T13:49:09.416Z,16.54
2019-04-06T13:51:46.291Z,16.36
2019-04-06T13:54:15.690Z,16.10
2019-04-06T13:56:54.302Z,15.89
2019-04-06T13:59:23.700Z,16.36
2019-04-06T14:02:11.475Z,16.72
2019-04-06T14:04:45.754Z,16.90
2019-04-06T14:07:17.827Z,17.06
2019-04-06T14:09:49.067Z,17.12
2019-04-06T14:12:32.863Z,17.54
2019-04-06T14:15:10.054Z,18.00
2019-04-06T14:17:39.498Z,18.37
2019-04-06T14:20:21.470Z,18.90
2019-04-06T14:22:53.090Z,18.48
2019-04-06T14:25:22.487Z,18.75
2019-04-06T14:28:05.433Z,18.83
2019-04-06T14:30:37.580Z,19.34
2019-04-06T14:33:23.865Z,19.25
2019-04-06T14:36:09.621Z,18.79
2019-04-06T14:38:44.899Z,18.59
2019-04-06T14:41:16.777Z,18.43
2019-04-06T14:43:57.295Z,18.35
2019-04-06T14:46:29.766Z,18.65
2019-04-06T14:49:14.267Z,18.50
2019-04-06T14:51:40.922Z,18.65
2019-04-06T14:54:14.954Z,18.83
2019-04-06T14:56:58.193Z,19.02
2019-04-06T14:59:45.723Z,18.69
2019-04-06T15:02:17.076Z,19.06
2019-04-06T15:05:04.684Z,19.39
2019-04-06T15:07:56.487Z,19.82
2019-04-06T15:10:25.388Z,19.85
2019-04-06T15:13:08.231Z,19.63
2019-04-06T15:15:42.815Z,19.16
2019-04-06T15:18:17.261Z,18.67
2019-04-06T15:21:05.235Z,18.38
2019-04-06T15:23:37.447Z,17.86
2019-04-06T15:26:10.065Z,17.57
2019-04-06T15:28:45.156Z,17.40
2019-04-06T15:31:23.870Z,17.37
2019-04-06T15:33:55.697Z,17.49
2019-04-06T15:36:42.079Z,17.69
2019-04-06T15:39:19.153Z,17.71
2019-04-06T15:41:56.303Z,17.74
2019-04-06T15:44:40.159Z,17.65
2019-04-06T15:47:20.490Z,17.50
2019-04-06T15:50:08.122Z,18.06
2019-04-06T15:52:39.420Z,18.82
2019-04-06T15:55:15.552Z,19.85
2019-04-06T15:58:02.960Z,20.81
2019-04-06T16:00:34.514Z,21.60
2019-04-06T16:03:15.073Z,22.56
2019-04-06T16:05:49.078Z,22.84
2019-04-06T16:08:23.055Z,23.01
2019-04-06T16:11:03.273Z,23.41
2019-04-06T16:13:40.530Z,23.38
2019-04-06T16:16:17.334Z,23.29
2019-04-06T16:19:03.823Z,22.88
2019-04-06T16:21:41.152Z,22.51
2019-04-06T16:24:25.695Z,22.01
2019-04-06T16:26:56.973Z,21.66
2019-04-06T16:29:44.869Z,21.85
2019-04-06T16:32:14.969Z,21.56
2019-04-06T16:35:02.637Z,21.75
2019-04-06T16:37:48.720Z,21.86
2019-04-06T16:40:35.743Z,21.31
2019-04-06T16:43:07.564Z,20.86
2019-04-06T16:45:38.915Z,20.24
2019-04-06T16:48:16.601Z,19.41
2019-04-06T16:50:49.560Z,18.75
2019-04-06T16:53:29.760Z,18.28
2019-04-06T16:56:13.093Z,17.80
2019-04-06T16:58:47.293Z,17.42
2019-04-06T17:01:19.714Z,17.17
2019-04-06T17:03:51.274Z,16.91
2019-04-06T17:06:31.609Z,16.73
2019-04-06T17:09:06.010Z,16.52
2019-04-06T17:11:52.575Z,16.36
2019-04-06T17:14:24.392Z,16.17
2019-04-06T17:17:02.485Z,16.09
2019-04-06T17:19:36.527Z,15.97
2019-04-06T17:22:08.681Z,15.88
2019-04-06T17:24:46.123Z,15.76
2019-04-06T17:27:35.259Z,15.66
2019-04-06T17:30:10.395Z,15.51
2019-04-06T17:32:54.885Z,15.34
2019-04-06T17:35:29.117Z,15.26
2019-04-06T17:38:01.399Z,15.15
2019-04-06T17:40:41.463Z,15.01
2019-04-06T17:43:13.102Z,14.86
2019-04-06T17:45:47.202Z,14.79
2019-04-06T17:48:30.868Z,14.70
2019-04-06T17:51:08.153Z,14.58
2019-04-06T17:53:43.623Z,14.48
2019-04-06T17:56:15.025Z,14.40
2019-04-06T17:58:46.408Z,14.31
2019-04-06T18:01:20.991Z,14.22
2019-04-06T18:04:05.561Z,14.11
2019-04-06T18:06:53.328Z,14.03
2019-04-06T18:09:27.113Z,13.92
2019-04-06T18:12:01.061Z,13.75
2019-04-06T18:14:30.715Z,13.71
2019-04-06T18:17:00.350Z,13.60
2019-04-06T18:19:30.021Z,13.66
2019-04-06T18:21:59.656Z,13.62
2019-04-06T18:24:29.285Z,13.46
2019-04-06T18:26:58.946Z,13.31
2019-04-06T18:29:28.568Z,13.23
2019-04-06T18:32:18.184Z,13.15
2019-04-06T18:34:48.074Z,13.09
2019-04-06T18:37:17.999Z,13.08
2019-04-06T18:39:48.090Z,13.01
2019-04-06T18:42:17.877Z,12.93
2019-04-06T18:44:47.565Z,12.90
2019-04-06T18:47:17.575Z,12.80
2019-04-06T18:49:47.238Z,12.76
2019-04-06T18:52:16.898Z,12.72
2019-04-06T18:54:46.528Z,12.60
2019-04-06T18:57:16.222Z,12.54
2019-04-06T18:59:46.062Z,12.62
2019-04-06T19:02:16.206Z,12.63
2019-04-06T19:04:46.437Z,12.41
2019-04-06T19:07:16.411Z,12.35
2019-04-06T19:09:46.378Z,12.22
2019-04-06T19:12:16.012Z,12.07
2019-04-06T19:14:45.665Z,12.07
2019-04-06T19:17:15.375Z,12.07
2019-04-06T19:19:45.513Z,12.01
2019-04-06T19:22:15.316Z,12.00
2019-04-06T19:24:45.125Z,12.08
2019-04-06T19:27:14.826Z,11.98
2019-04-06T19:29:44.539Z,11.95
2019-04-06T19:32:14.162Z,12.01
2019-04-06T19:34:43.897Z,12.01
2019-04-06T19:37:13.529Z,11.78
2019-04-06T19:39:43.292Z,11.75
2019-04-06T19:42:12.887Z,11.83
2019-04-06T19:44:42.585Z,11.77
2019-04-06T19:47:14.991Z,11.73
2019-04-06T19:49:44.650Z,11.79
2019-04-06T19:52:14.278Z,11.73
2019-04-06T19:54:43.933Z,11.71
2019-04-06T19:57:13.563Z,11.65
2019-04-06T19:59:43.221Z,11.63
2019-04-06T20:02:12.858Z,11.58
2019-04-06T20:04:42.523Z,11.51
2019-04-06T20:07:12.687Z,11.44
2019-04-06T20:09:42.398Z,11.41
2019-04-06T20:12:12.507Z,11.35
2019-04-06T20:14:42.270Z,11.19
2019-04-06T20:17:12.227Z,11.10
2019-04-06T20:19:42.013Z,11.13
2019-04-06T20:22:11.625Z,11.05
2019-04-06T20:24:41.802Z,11.08
2019-04-06T20:27:12.082Z,11.01
2019-04-06T20:29:41.961Z,10.95
2019-04-06T20:32:13.346Z,10.86
2019-04-06T20:34:42.993Z,10.83
2019-04-06T20:37:12.640Z,10.85
2019-04-06T20:39:42.433Z,10.81
2019-04-06T20:42:12.193Z,10.78
2019-04-06T20:44:41.831Z,10.76
2019-04-06T20:47:11.508Z,10.70
2019-04-06T20:49:41.698Z,10.70
2019-04-06T20:52:11.774Z,10.59
2019-04-06T20:54:41.659Z,10.54
2019-04-06T20:57:11.323Z,10.50
2019-04-06T20:59:40.947Z,10.44
2019-04-06T21:02:10.611Z,10.51
2019-04-06T21:04:40.234Z,10.43
2019-04-06T21:07:09.961Z,10.27
2019-04-06T21:09:39.590Z,10.26
2019-04-06T21:12:09.241Z,10.29
2019-04-06T21:14:38.954Z,10.20
2019-04-06T21:17:08.656Z,10.22
2019-04-06T21:19:38.304Z,10.20
2019-04-06T21:22:08.104Z,10.19
2019-04-06T21:24:37.892Z,10.22
2019-04-06T21:27:07.696Z,10.12
2019-04-06T21:29:38.141Z,10.11
2019-04-06T21:32:07.883Z,10.04
2019-04-06T21:34:37.556Z,9.98
2019-04-06T21:37:07.183Z,9.92
2019-04-06T21:39:37.103Z,9.89
2019-04-06T21:42:06.804Z,9.61
2019-04-06T21:44:36.448Z,9.39
2019-04-06T21:47:07.400Z,9.40
2019-04-06T21:49:37.446Z,9.41
2019-04-06T21:52:07.572Z,9.50
2019-04-06T21:54:37.290Z,9.45
2019-04-06T21:57:07.245Z,9.50
2019-04-06T21:59:37.531Z,9.54
2019-04-06T22:02:07.220Z,9.56
2019-04-06T22:04:37.415Z,9.60
2019-04-06T22:07:08.753Z,9.62
2019-04-06T22:09:38.993Z,9.66
2019-04-06T22:12:09.872Z,9.65
2019-04-06T22:14:39.665Z,9.65
2019-04-06T22:17:10.118Z,9.62
2019-04-06T22:19:40.879Z,9.54
2019-04-06T22:22:11.069Z,9.43
2019-04-06T22:24:40.781Z,9.41
2019-04-06T22:27:10.859Z,9.43
2019-04-06T22:29:40.792Z,9.49
2019-04-06T22:32:10.420Z,9.49
2019-04-06T22:34:41.672Z,9.29
2019-04-06T22:37:11.656Z,9.15
2019-04-06T22:39:41.286Z,9.09
2019-04-06T22:42:12.627Z,9.09
2019-04-06T22:44:42.683Z,9.13
2019-04-06T22:47:12.914Z,9.19
2019-04-06T22:49:43.263Z,8.98
2019-04-06T22:52:13.389Z,8.79
2019-04-06T22:54:43.533Z,8.85
2019-04-06T22:57:13.533Z,8.89
2019-04-06T22:59:43.233Z,8.92
2019-04-06T23:02:12.855Z,8.97
2019-04-06T23:04:48.551Z,8.85
2019-04-06T23:07:17.131Z,8.89
2019-04-06T23:09:46.775Z,8.89
2019-04-06T23:12:16.751Z,9.03
2019-04-06T23:14:46.481Z,8.94
2019-04-06T23:17:16.099Z,8.95
2019-04-06T23:19:46.249Z,8.89
2019-04-06T23:22:16.843Z,8.81
2019-04-06T23:24:46.852Z,8.70
2019-04-06T23:27:16.650Z,8.70
2019-04-06T23:29:46.287Z,8.57
2019-04-06T23:32:16.021Z,8.52
2019-04-06T23:34:56.969Z,8.46
2019-04-06T23:37:17.087Z,8.33
2019-04-06T23:39:46.712Z,8.37
2019-04-06T23:42:16.360Z,8.32
2019-04-06T23:44:46.488Z,8.35
2019-04-06T23:47:16.520Z,8.24
2019-04-06T23:49:46.256Z,8.06
2019-04-06T23:52:15.931Z,8.08
2019-04-06T23:54:45.552Z,7.91
2019-04-06T23:57:15.207Z,7.90
2019-04-06T23:59:44.884Z,7.87
